Air Navigation Services of Czech Republic
Airport: LKLN Updated:  03.10.2022 10:25:31  UTC
 METAR LKLN 03.10. 10:30 ...
METAR LKLN 031030Z AUTO 28007KT 210V330 9999 FEW021 SCT046 BKN052 12/08 Q1025=